Time;durP1;ratioP1;P1;durP2;ratioP2;P2;SDS_P1;SDS_P2;PMS_P1;PMS_P2;Temp;Humidity;BMP_temperature;BMP_pressure;BME280_temperature;BME280_humidity;BME280_pressure;Samples;Min_cycle;Max_cycle;Signal;HPM_P1;HPM_P2
2022/05/06 00:02:14;;;;;;;16.30;6.13;;;14.20;1.00;;;;;;5108538;28;20532;-58
2022/05/06 00:04:43;;;;;;;6.07;5.40;;;14.20;1.00;;;;;;5102569;28;20246;-57
2022/05/06 00:07:11;;;;;;;6.37;4.70;;;14.20;1.00;;;;;;5105238;28;20441;-58
2022/05/06 00:09:37;;;;;;;5.37;4.80;;;14.20;1.00;;;;;;5106974;28;20444;-58
2022/05/06 00:12:02;;;;;;;12.30;5.27;;;14.20;1.00;;;;;;5100554;28;21058;-57
2022/05/06 00:14:28;;;;;;;8.83;5.70;;;14.20;1.00;;;;;;5104018;28;20500;-57
2022/05/06 00:16:54;;;;;;;6.30;4.77;;;14.50;1.00;;;;;;5103876;28;20182;-57
2022/05/06 00:19:19;;;;;;;9.13;5.40;;;14.40;1.00;;;;;;5099462;28;20648;-57
2022/05/06 00:21:45;;;;;;;5.50;4.60;;;14.60;1.00;;;;;;5106394;28;20197;-57
2022/05/06 00:24:10;;;;;;;5.77;4.30;;;14.60;1.00;;;;;;5101753;28;20207;-58
2022/05/06 00:26:36;;;;;;;6.00;4.33;;;14.70;1.00;;;;;;5098846;28;20183;-57
2022/05/06 00:29:01;;;;;;;7.13;4.00;;;14.80;1.00;;;;;;5108496;28;20201;-57
2022/05/06 00:31:27;;;;;;;5.83;4.40;;;14.90;1.00;;;;;;5108734;28;20687;-56
2022/05/06 00:33:52;;;;;;;8.23;5.07;;;14.80;1.00;;;;;;5103215;28;20190;-57
2022/05/06 00:36:18;;;;;;;7.07;4.37;;;14.90;1.00;;;;;;5108761;28;20204;-58
2022/05/06 00:38:43;;;;;;;6.77;4.60;;;14.80;1.00;;;;;;5107181;28;20208;-57
2022/05/06 00:41:09;;;;;;;7.83;4.27;;;14.70;1.00;;;;;;5109058;28;20186;-57
2022/05/06 00:43:40;;;;;;;7.97;4.37;;;14.70;1.00;;;;;;5103361;28;20228;-57
2022/05/06 00:48:32;;;;;;;5.97;4.60;;;14.80;1.00;;;;;;5101259;28;20521;-57
2022/05/06 00:50:59;;;;;;;6.00;4.30;;;14.90;1.00;;;;;;5106557;28;20807;-58
2022/05/06 00:53:26;;;;;;;6.43;4.40;;;14.80;1.00;;;;;;5108987;28;20206;-56
2022/05/06 00:55:52;;;;;;;4.80;4.33;;;14.90;1.00;;;;;;5103189;28;21157;-57
2022/05/06 00:58:19;;;;;;;6.03;3.90;;;15.00;1.00;;;;;;5107071;28;20680;-56
2022/05/06 01:00:45;;;;;;;4.83;3.80;;;15.00;1.00;;;;;;5104529;28;20438;-56
2022/05/06 01:03:11;;;;;;;6.40;4.70;;;15.10;1.00;;;;;;5105919;28;20503;-56
2022/05/06 01:05:39;;;;;;;7.63;4.20;;;15.10;1.00;;;;;;5098839;28;20452;-56
2022/05/06 01:08:05;;;;;;;6.80;4.17;;;15.10;1.00;;;;;;5104466;28;20751;-57
2022/05/06 01:10:31;;;;;;;5.87;4.17;;;15.00;1.00;;;;;;5097758;28;20443;-57
2022/05/06 01:12:57;;;;;;;6.47;4.47;;;14.90;1.00;;;;;;5097290;28;20501;-57
2022/05/06 01:15:28;;;;;;;5.00;4.07;;;14.90;1.00;;;;;;5103971;28;20504;-58
2022/05/06 01:17:56;;;;;;;4.80;4.30;;;15.00;1.00;;;;;;5105796;28;20273;-58
2022/05/06 01:20:23;;;;;;;7.70;4.30;;;14.90;1.00;;;;;;5108251;28;20458;-56
2022/05/06 01:22:51;;;;;;;4.83;4.20;;;14.80;1.00;;;;;;5101477;28;20455;-56
2022/05/06 01:25:18;;;;;;;6.73;4.43;;;14.70;1.00;;;;;;5109221;28;21465;-57
2022/05/06 01:27:55;;;;;;;6.40;4.70;;;14.70;1.00;;;;;;5094123;28;20448;-57
2022/05/06 01:30:36;;;;;;;4.77;4.33;;;14.70;1.00;;;;;;5109613;28;20451;-57
2022/05/06 01:33:07;;;;;;;4.30;3.90;;;14.80;1.00;;;;;;5107901;28;20528;-57
2022/05/06 01:35:38;;;;;;;4.97;4.23;;;14.70;1.00;;;;;;5103813;28;20791;-56
2022/05/06 01:38:05;;;;;;;6.80;4.23;;;14.70;1.00;;;;;;5072436;28;20445;-57
2022/05/06 01:40:37;;;;;;;6.40;4.30;;;14.70;1.00;;;;;;5096750;28;20448;-57
2022/05/06 01:43:05;;;;;;;7.07;4.37;;;16.60;1.00;;;;;;5105819;28;20574;-57
2022/05/06 01:45:34;;;;;;;4.73;4.17;;;14.70;1.00;;;;;;5093665;28;20464;-58
2022/05/06 01:48:02;;;;;;;8.30;4.20;;;14.60;1.00;;;;;;5101455;28;20517;-58
2022/05/06 01:50:28;;;;;;;5.40;4.50;;;14.60;1.00;;;;;;5094392;28;20501;-57
2022/05/06 01:52:56;;;;;;;5.27;4.77;;;14.40;1.00;;;;;;5108033;28;20458;-57
2022/05/06 01:55:23;;;;;;;5.10;4.20;;;14.40;1.00;;;;;;5107130;28;20439;-56
2022/05/06 01:57:48;;;;;;;6.33;4.30;;;14.30;1.00;;;;;;5109077;28;20440;-57
2022/05/06 02:00:15;;;;;;;7.40;3.90;;;14.30;1.00;;;;;;5104620;28;20462;-57
2022/05/06 02:02:41;;;;;;;5.93;3.93;;;14.20;1.00;;;;;;5109106;28;20249;-57
2022/05/06 02:05:19;;;;;;;6.40;4.23;;;14.20;1.00;;;;;;5093294;28;20478;-57
2022/05/06 02:07:50;;;;;;;4.43;4.03;;;14.20;1.00;;;;;;5101386;28;20205;-58
2022/05/06 02:10:17;;;;;;;5.23;3.97;;;14.00;1.00;;;;;;5099224;28;20454;-58
2022/05/06 02:12:44;;;;;;;5.37;4.67;;;14.10;1.00;;;;;;5104175;28;20496;-56
2022/05/06 02:15:12;;;;;;;10.40;5.20;;;14.00;1.00;;;;;;5108220;28;20949;-57
2022/05/06 02:17:39;;;;;;;4.37;3.97;;;14.00;1.00;;;;;;5102338;28;20520;-57
2022/05/06 02:20:06;;;;;;;7.53;5.07;;;14.00;1.00;;;;;;5099686;28;20433;-57
2022/05/06 02:22:33;;;;;;;5.33;4.30;;;13.90;1.00;;;;;;5101926;28;20448;-57
2022/05/06 02:24:58;;;;;;;4.90;3.70;;;13.80;1.00;;;;;;5102706;28;20572;-57
2022/05/06 02:27:24;;;;;;;4.60;4.20;;;13.80;1.00;;;;;;5099583;28;20873;-57
2022/05/06 02:35:18;;;;;;;6.00;4.50;;;13.60;1.00;;;;;;5101986;28;21067;-57
2022/05/06 02:37:43;;;;;;;5.20;4.70;;;13.50;1.00;;;;;;5104750;28;20444;-57
2022/05/06 02:40:10;;;;;;;7.80;4.60;;;13.50;1.00;;;;;;5106547;28;20194;-57
2022/05/06 02:42:36;;;;;;;7.23;5.57;;;13.50;1.00;;;;;;5098478;28;20182;-56
2022/05/06 02:45:01;;;;;;;5.37;4.87;;;13.50;1.00;;;;;;5104968;28;20544;-56
2022/05/06 02:47:27;;;;;;;6.50;4.40;;;13.30;1.00;;;;;;5097993;28;20462;-57
2022/05/06 02:49:53;;;;;;;8.43;4.20;;;13.30;1.00;;;;;;5104362;28;20688;-57
2022/05/06 02:52:18;;;;;;;5.13;4.63;;;13.30;1.00;;;;;;5106932;28;20678;-55
2022/05/06 02:54:45;;;;;;;7.90;4.83;;;13.30;1.00;;;;;;5093567;28;20183;-57
2022/05/06 02:57:11;;;;;;;5.43;4.77;;;13.20;1.00;;;;;;5105329;28;20201;-58
2022/05/06 02:59:37;;;;;;;8.90;4.80;;;13.20;1.00;;;;;;5106123;28;20441;-57
2022/05/06 03:02:03;;;;;;;5.80;5.03;;;12.90;1.00;;;;;;5102676;28;20622;-57
2022/05/06 03:04:29;;;;;;;5.27;4.73;;;;;;;;;;5098046;28;20561;-56
2022/05/06 03:06:55;;;;;;;7.07;4.80;;;12.90;1.00;;;;;;5094634;28;20190;-57
2022/05/06 03:09:20;;;;;;;6.07;4.73;;;12.90;1.00;;;;;;5101452;28;20440;-57
2022/05/06 03:11:46;;;;;;;4.80;4.30;;;12.90;1.00;;;;;;5103801;28;20534;-57
2022/05/06 03:14:11;;;;;;;6.00;4.60;;;12.90;1.00;;;;;;5105882;28;20189;-57
2022/05/06 03:16:37;;;;;;;5.80;5.07;;;12.80;1.00;;;;;;5105972;28;20197;-57
2022/05/06 03:19:02;;;;;;;5.83;5.33;;;12.70;1.00;;;;;;5092365;28;20579;-57
2022/05/06 03:21:28;;;;;;;7.40;5.47;;;12.70;1.00;;;;;;5088287;28;20190;-58
2022/05/06 03:23:54;;;;;;;5.60;4.90;;;12.70;1.00;;;;;;5104006;28;20222;-57
2022/05/06 03:26:20;;;;;;;5.60;4.53;;;12.60;1.00;;;;;;5104586;28;20225;-56
2022/05/06 03:28:46;;;;;;;6.67;5.50;;;12.60;1.00;;;;;;5110383;28;20940;-56
2022/05/06 03:31:13;;;;;;;6.17;5.57;;;12.50;1.00;;;;;;5110106;28;20641;-57
2022/05/06 03:33:41;;;;;;;5.80;5.20;;;12.30;1.00;;;;;;5111954;28;20456;-56
2022/05/06 03:36:09;;;;;;;6.20;5.27;;;12.40;1.00;;;;;;5107890;28;20463;-57
2022/05/06 03:38:35;;;;;;;12.33;5.80;;;12.30;1.00;;;;;;5106788;28;20462;-57
2022/05/06 03:41:00;;;;;;;8.87;5.30;;;12.20;1.00;;;;;;5111823;28;20952;-57
2022/05/06 03:43:27;;;;;;;6.37;5.77;;;12.20;1.00;;;;;;5109029;28;20238;-57
2022/05/06 03:45:53;;;;;;;9.23;4.40;;;12.30;1.00;;;;;;5108873;28;20255;-56
2022/05/06 03:48:24;;;;;;;6.37;4.67;;;12.30;1.00;;;;;;5104018;28;20797;-57
2022/05/06 03:53:34;;;;;;;5.10;4.60;;;12.30;1.00;;;;;;5099603;28;20797;-57
2022/05/06 03:56:00;;;;;;;5.73;5.13;;;12.30;1.00;;;;;;5101764;28;20440;-57
2022/05/06 03:58:26;;;;;;;6.00;5.17;;;12.30;1.00;;;;;;5108513;28;20231;-57
2022/05/06 04:00:52;;;;;;;12.20;5.60;;;12.40;1.00;;;;;;5112505;28;20447;-58
2022/05/06 04:03:18;;;;;;;6.40;4.90;;;11.50;1.00;;;;;;5101183;28;20608;-59
2022/05/06 04:05:44;;;;;;;9.40;5.43;;;12.40;1.00;;;;;;5110541;28;20447;-61
2022/05/06 04:08:09;;;;;;;8.03;5.70;;;12.40;1.00;;;;;;5104632;28;20440;-59
2022/05/06 04:10:35;;;;;;;6.10;5.50;;;12.40;1.00;;;;;;5108534;28;20186;-60
2022/05/06 04:13:02;;;;;;;8.47;6.37;;;12.50;1.00;;;;;;5099691;28;20189;-61
2022/05/06 04:15:28;;;;;;;9.37;4.70;;;12.50;1.00;;;;;;5111504;28;20317;-60
2022/05/06 04:17:54;;;;;;;7.20;5.57;;;12.70;1.00;;;;;;5105971;28;20462;-60
2022/05/06 04:25:48;;;;;;;6.63;5.10;;;12.80;1.00;;;;;;5108337;28;21066;-61
2022/05/06 04:28:13;;;;;;;5.87;5.27;;;12.80;1.00;;;;;;5104295;28;20476;-60
2022/05/06 04:30:39;;;;;;;7.27;5.50;;;12.80;1.00;;;;;;5100970;28;20179;-56
2022/05/06 04:33:04;;;;;;;9.20;6.00;;;12.90;1.00;;;;;;5098909;28;20324;-57
2022/05/06 04:35:30;;;;;;;6.43;5.80;;;13.00;1.00;;;;;;5111186;28;20193;-56
2022/05/06 04:37:55;;;;;;;7.53;6.00;;;13.00;1.00;;;;;;5110173;28;20190;-57
2022/05/06 04:40:21;;;;;;;9.03;6.47;;;13.10;1.00;;;;;;5104463;28;20277;-57
2022/05/06 04:42:46;;;;;;;7.70;5.00;;;13.10;1.00;;;;;;5096415;28;20596;-57
2022/05/06 04:45:12;;;;;;;5.90;5.30;;;13.10;1.00;;;;;;5103937;28;20267;-57
2022/05/06 04:47:38;;;;;;;8.40;5.60;;;13.00;1.00;;;;;;5097637;28;20227;-56
2022/05/06 04:50:04;;;;;;;8.30;5.17;;;13.00;1.00;;;;;;5108730;28;20180;-56
2022/05/06 04:52:32;;;;;;;5.80;5.13;;;13.00;1.00;;;;;;5110171;28;20197;-56
2022/05/06 04:54:57;;;;;;;5.37;4.87;;;9.80;1.00;;;;;;5093843;28;20451;-57
2022/05/06 04:57:23;;;;;;;9.00;5.33;;;13.00;1.00;;;;;;5088088;28;20443;-56
2022/05/06 04:59:49;;;;;;;11.20;6.27;;;12.90;1.00;;;;;;5088979;28;20182;-56
2022/05/06 05:02:16;;;;;;;6.87;5.63;;;12.90;1.00;;;;;;5088598;28;20194;-57
2022/05/06 05:04:42;;;;;;;7.50;5.63;;;12.80;1.00;;;;;;5091421;28;20220;-57
2022/05/06 05:07:08;;;;;;;6.73;5.47;;;13.00;1.00;;;;;;5100145;28;21005;-56
2022/05/06 05:09:35;;;;;;;6.23;5.00;;;13.20;1.00;;;;;;5106735;28;20526;-56
2022/05/06 05:12:00;;;;;;;5.87;5.30;;;13.10;1.00;;;;;;5109518;28;20282;-57
2022/05/06 05:14:25;;;;;;;6.53;4.83;;;13.10;1.00;;;;;;5092614;28;20893;-57
2022/05/06 05:16:51;;;;;;;7.23;5.33;;;13.10;1.00;;;;;;5097861;28;20188;-58
2022/05/06 05:19:17;;;;;;;5.70;4.83;;;13.20;1.00;;;;;;5102166;28;20196;-56
2022/05/06 05:21:43;;;;;;;6.53;5.83;;;13.10;1.00;;;;;;5108339;28;20539;-57
2022/05/06 05:24:08;;;;;;;5.93;5.40;;;13.30;1.00;;;;;;5100459;28;20477;-57
2022/05/06 05:26:34;;;;;;;6.50;4.70;;;13.20;1.00;;;;;;5097188;28;20177;-56
2022/05/06 05:29:00;;;;;;;6.33;4.63;;;13.30;1.00;;;;;;5108492;28;20204;-56
2022/05/06 05:31:26;;;;;;;9.17;6.13;;;13.30;1.00;;;;;;5109936;28;20239;-58
2022/05/06 05:33:52;;;;;;;8.60;6.80;;;13.40;1.00;;;;;;5110436;28;20452;-56
2022/05/06 05:36:18;;;;;;;10.93;7.77;;;13.40;1.00;;;;;;5109779;28;20455;-56
2022/05/06 05:38:44;;;;;;;7.80;5.77;;;13.50;1.00;;;;;;5098404;28;20455;-57
2022/05/06 05:41:11;;;;;;;6.30;5.70;;;13.60;1.00;;;;;;5107916;28;20867;-56
2022/05/06 05:49:06;;;;;;;5.97;5.47;;;13.70;1.00;;;;;;5093942;28;20510;-56
2022/05/06 05:51:34;;;;;;;7.87;5.67;;;13.80;1.00;;;;;;5101526;28;21125;-56
2022/05/06 05:54:00;;;;;;;7.10;6.20;;;13.80;1.00;;;;;;5100350;28;20797;-57
2022/05/06 05:56:26;;;;;;;7.07;5.33;;;13.80;1.00;;;;;;5102613;28;20447;-56
2022/05/06 05:58:51;;;;;;;9.47;5.47;;;13.70;1.00;;;;;;5109872;28;20201;-57
2022/05/06 06:01:18;;;;;;;5.97;5.47;;;13.70;1.00;;;;;;5109343;28;20194;-56
2022/05/06 06:03:43;;;;;;;7.97;6.73;;;13.80;1.00;;;;;;5105739;28;20213;-56
2022/05/06 06:06:09;;;;;;;10.27;5.93;;;14.00;1.00;;;;;;5105940;28;20520;-57
2022/05/06 06:08:35;;;;;;;9.50;5.70;;;14.20;1.00;;;;;;5100054;28;20197;-57
2022/05/06 06:11:08;;;;;;;8.13;6.60;;;14.00;1.00;;;;;;5089330;28;20456;-57
2022/05/06 06:13:34;;;;;;;7.03;5.90;;;14.10;1.00;;;;;;5102087;28;20539;-57
2022/05/06 06:16:01;;;;;;;12.93;6.10;;;14.10;1.00;;;;;;5094928;28;20530;-57
2022/05/06 06:18:27;;;;;;;8.63;5.90;;;14.20;1.00;;;;;;5093549;28;20293;-56
2022/05/06 06:20:56;;;;;;;7.40;5.97;;;14.20;1.00;;;;;;5105935;28;20530;-56
2022/05/06 06:23:22;;;;;;;9.03;5.63;;;14.40;1.00;;;;;;5093825;28;20582;-55
2022/05/06 06:25:48;;;;;;;6.27;5.50;;;14.50;1.00;;;;;;5104317;28;20447;-57
2022/05/06 06:28:14;;;;;;;8.07;5.70;;;14.50;1.00;;;;;;5100555;28;20559;-57
2022/05/06 06:30:40;;;;;;;8.00;7.20;;;14.40;1.00;;;;;;5102699;28;20480;-57
2022/05/06 06:33:07;;;;;;;6.73;5.57;;;14.30;1.00;;;;;;5109244;28;20516;-55
2022/05/06 06:35:33;;;;;;;11.97;6.00;;;14.40;1.00;;;;;;5107311;28;20879;-57
2022/05/06 06:38:00;;;;;;;11.93;6.40;;;14.90;1.00;;;;;;5108363;28;20526;-57
2022/05/06 06:40:25;;;;;;;6.77;6.07;;;15.00;1.00;;;;;;5106813;28;20190;-57
2022/05/06 06:42:51;;;;;;;9.00;6.97;;;15.00;1.00;;;;;;5102719;28;20964;-56
2022/05/06 06:45:17;;;;;;;7.43;6.60;;;14.90;1.00;;;;;;5105663;28;21264;-57
2022/05/06 06:47:43;;;;;;;6.50;5.70;;;14.90;1.00;;;;;;5107983;28;20265;-56
2022/05/06 06:50:09;;;;;;;9.43;6.33;;;14.90;1.00;;;;;;5105350;28;20531;-57
2022/05/06 06:52:35;;;;;;;10.67;7.03;;;14.80;1.00;;;;;;5095479;28;20624;-57
2022/05/06 06:55:00;;;;;;;10.90;6.23;;;14.80;1.00;;;;;;5103044;28;20277;-57
2022/05/06 06:57:29;;;;;;;13.27;7.13;;;14.90;1.00;;;;;;5109447;28;20201;-58
2022/05/06 06:59:55;;;;;;;6.90;6.23;;;14.80;1.00;;;;;;5107688;28;20679;-58
2022/05/06 07:02:21;;;;;;;6.90;6.30;;;15.00;1.00;;;;;;5111352;28;20439;-57
2022/05/06 07:04:46;;;;;;;7.27;6.57;;;15.10;1.00;;;;;;5104928;28;20998;-57
2022/05/06 07:12:40;;;;;;;8.43;6.70;;;16.20;1.00;;;;;;5094418;28;20442;-58
2022/05/06 07:15:06;;;;;;;8.87;6.80;;;16.30;1.00;;;;;;5109386;28;20428;-57
2022/05/06 07:17:32;;;;;;;7.37;6.03;;;16.30;1.00;;;;;;5113965;28;20186;-56
2022/05/06 07:19:57;;;;;;;7.23;6.50;;;16.40;1.00;;;;;;5113958;28;20522;-57
2022/05/06 07:22:23;;;;;;;8.20;6.63;;;16.50;1.00;;;;;;5113842;28;20178;-57
2022/05/06 07:24:48;;;;;;;9.63;6.50;;;16.50;1.00;;;;;;5108421;28;20218;-57
2022/05/06 07:27:14;;;;;;;9.90;7.53;;;16.60;1.00;;;;;;5104668;28;20183;-57
2022/05/06 07:29:39;;;;;;;7.60;6.80;;;16.80;1.00;;;;;;5093221;28;20231;-56
2022/05/06 07:32:05;;;;;;;7.97;7.17;;;16.80;1.00;;;;;;5094365;28;20170;-56
2022/05/06 07:34:31;;;;;;;10.63;6.97;;;16.90;1.00;;;;;;5093187;28;20312;-58
2022/05/06 07:36:57;;;;;;;12.03;7.43;;;16.90;1.00;;;;;;5093178;28;20730;-57
2022/05/06 07:39:23;;;;;;;17.13;8.37;;;17.00;1.00;;;;;;5075417;28;20274;-57
2022/05/06 07:41:48;;;;;;;10.43;7.60;;;;;;;;;;5093360;28;20436;-59
2022/05/06 07:44:14;;;;;;;8.03;7.17;;;17.20;1.00;;;;;;5110788;28;20281;-57
2022/05/06 07:46:40;;;;;;;8.30;7.50;;;17.40;1.00;;;;;;5098338;28;20515;-57
2022/05/06 07:49:06;;;;;;;10.80;7.67;;;17.40;1.00;;;;;;5109271;28;20190;-58
2022/05/06 07:51:32;;;;;;;12.03;7.43;;;17.50;1.00;;;;;;5111802;28;20500;-57
2022/05/06 07:53:58;;;;;;;8.10;7.30;;;17.50;1.00;;;;;;5099578;28;20535;-57
2022/05/06 07:56:25;;;;;;;14.03;8.70;;;17.60;1.00;;;;;;5109004;28;20205;-56
2022/05/06 07:58:51;;;;;;;12.03;7.57;;;17.70;1.00;;;;;;5101967;28;20277;-57
2022/05/06 08:01:18;;;;;;;11.70;7.27;;;17.40;1.00;;;;;;5111480;28;20544;-57
2022/05/06 08:06:30;;;;;;;9.43;7.50;;;18.00;1.00;;;;;;5094571;28;20593;-57
2022/05/06 08:08:55;;;;;;;9.80;7.70;;;18.20;1.00;;;;;;5092413;28;20428;-57
2022/05/06 08:11:22;;;;;;;10.43;8.77;;;18.20;1.00;;;;;;5092980;28;20965;-58
2022/05/06 08:13:49;;;;;;;9.07;7.93;;;18.10;1.00;;;;;;5092703;28;20322;-58
2022/05/06 08:16:15;;;;;;;9.93;8.10;;;18.10;1.00;;;;;;5092733;28;20817;-57
2022/05/06 08:18:40;;;;;;;9.13;7.83;;;18.10;1.00;;;;;;5102788;28;20449;-59
2022/05/06 08:21:29;;;;;;;14.00;8.33;;;18.00;1.00;;;;;;5112556;28;20272;-58
2022/05/06 08:23:56;;;;;;;10.47;8.60;;;17.90;1.00;;;;;;5078098;28;20218;-56
2022/05/06 08:26:21;;;;;;;13.23;9.33;;;18.00;1.00;;;;;;5099206;28;20777;-57
2022/05/06 08:28:48;;;;;;;9.33;8.53;;;18.00;1.00;;;;;;5096435;28;20448;-57
2022/05/06 08:31:13;;;;;;;10.27;8.20;;;18.30;1.00;;;;;;5109480;28;20182;-56
2022/05/06 08:33:39;;;;;;;14.40;8.87;;;18.40;1.00;;;;;;5080387;28;20778;-57
2022/05/06 08:36:28;;;;;;;9.70;8.80;;;18.20;1.00;;;;;;5100025;28;20655;-58
2022/05/06 08:38:53;;;;;;;11.57;8.93;;;18.10;1.00;;;;;;5063138;28;20204;-56
2022/05/06 08:41:19;;;;;;;9.80;8.50;;;18.20;1.00;;;;;;5109813;28;20448;-57
2022/05/06 08:43:45;;;;;;;9.77;8.37;;;19.00;1.00;;;;;;5111332;28;20232;-57
2022/05/06 08:51:31;;;;;;;9.03;8.13;;;19.00;1.00;;;;;;5092755;28;20611;-56
2022/05/06 08:53:57;;;;;;;12.50;8.77;;;19.20;1.00;;;;;;5107567;28;20463;-57
2022/05/06 08:56:23;;;;;;;10.10;9.10;;;19.20;1.00;;;;;;5109975;28;20451;-56
2022/05/06 08:58:48;;;;;;;10.83;8.90;;;19.80;1.00;;;;;;5100271;28;20801;-58
2022/05/06 09:03:41;;;;;;;9.43;8.50;;;20.00;1.00;;;;;;5102060;28;20210;-58
2022/05/06 09:06:32;;;;;;;12.40;8.70;;;20.40;1.00;;;;;;5109259;28;20196;-56
2022/05/06 09:08:59;;;;;;;10.60;9.30;;;20.40;1.00;;;;;;5087305;28;20475;-58
2022/05/06 09:14:16;;;;;;;12.93;9.93;;;20.30;1.00;;;;;;5098119;28;20582;-57
2022/05/06 09:16:44;;;;;;;13.40;10.20;;;;;;;;;;5102699;28;20426;-58
2022/05/06 09:19:13;;;;;;;11.97;10.67;;;;;;;;;;5108157;28;20418;-59
2022/05/06 09:21:41;;;;;;;10.67;9.63;;;19.80;1.00;;;;;;5110391;28;20447;-58
2022/05/06 09:24:19;;;;;;;11.87;10.30;;;20.00;1.00;;;;;;5098067;28;20815;-58
2022/05/06 09:27:03;;;;;;;13.13;10.00;;;20.20;1.00;;;;;;5110441;28;20443;-58
2022/05/06 09:29:35;;;;;;;11.33;10.13;;;20.60;1.00;;;;;;5110572;28;20444;-58
2022/05/06 09:32:29;;;;;;;20.23;9.30;;;20.10;1.00;;;;;;5109040;28;20439;-58
2022/05/06 09:35:10;;;;;;;13.80;10.93;;;20.20;1.00;;;;;;5097905;28;20542;-58
2022/05/06 09:37:36;;;;;;;13.03;10.10;;;20.30;1.00;;;;;;5107721;28;20447;-57
2022/05/06 09:40:13;;;;;;;11.27;10.10;;;20.50;1.00;;;;;;5096904;28;20449;-57
2022/05/06 09:42:43;;;;;;;10.83;9.73;;;20.30;1.00;;;;;;5109826;28;20496;-58
2022/05/06 09:45:14;;;;;;;11.00;9.43;;;20.60;1.00;;;;;;5108338;28;20562;-58
2022/05/06 09:47:40;;;;;;;10.23;9.23;;;20.50;1.00;;;;;;5104476;28;20439;-58
2022/05/06 09:50:08;;;;;;;10.40;9.40;;;20.40;1.00;;;;;;5096731;28;20524;-58
2022/05/06 09:52:35;;;;;;;11.07;9.17;;;20.30;1.00;;;;;;5091086;28;20444;-57
2022/05/06 09:55:01;;;;;;;12.93;9.47;;;20.30;1.00;;;;;;5094954;28;21953;-58
2022/05/06 09:57:28;;;;;;;9.37;8.37;;;20.70;1.00;;;;;;5096306;28;20476;-57
2022/05/06 09:59:54;;;;;;;8.47;7.40;;;21.00;1.00;;;;;;5088269;28;20425;-58
2022/05/06 10:02:20;;;;;;;7.47;6.57;;;;;;;;;;5088315;28;20473;-58
2022/05/06 10:04:49;;;;;;;10.63;7.00;;;19.80;1.00;;;;;;5087372;28;20221;-58
2022/05/06 10:07:17;;;;;;;7.43;6.70;;;19.40;1.00;;;;;;5091466;28;20462;-59
2022/05/06 10:09:58;;;;;;;6.90;6.00;;;19.40;1.00;;;;;;5099810;28;20444;-58
2022/05/06 10:12:29;;;;;;;7.27;6.60;;;19.70;1.00;;;;;;5094173;28;20435;-59
2022/05/06 10:14:56;;;;;;;7.70;6.90;;;20.30;1.00;;;;;;5097639;28;20451;-58
2022/05/06 10:17:54;;;;;;;8.30;7.10;;;21.00;1.00;;;;;;5101597;28;20814;-59
2022/05/06 10:20:38;;;;;;;7.83;6.87;;;21.40;1.00;;;;;;5092160;28;20515;-58
2022/05/06 10:23:12;;;;;;;10.33;7.27;;;21.50;1.00;;;;;;5099775;28;20436;-58
2022/05/06 10:25:40;;;;;;;8.27;6.23;;;21.40;1.00;;;;;;5095650;28;20446;-58
2022/05/06 10:34:06;;;;;;;8.50;5.47;;;21.80;1.00;;;;;;5092821;28;20814;-58
2022/05/06 10:36:41;;;;;;;6.80;5.93;;;22.00;1.00;;;;;;5093794;28;20439;-58
2022/05/06 10:39:34;;;;;;;8.23;5.63;;;22.40;1.00;;;;;;5107385;28;20189;-59
2022/05/06 10:42:03;;;;;;;6.27;5.67;;;22.40;1.00;;;;;;5100556;28;20463;-57
2022/05/06 10:44:43;;;;;;;6.00;5.20;;;22.20;1.00;;;;;;5108194;28;20504;-57
2022/05/06 10:47:11;;;;;;;8.33;5.60;;;22.80;1.00;;;;;;5103674;28;20444;-58
2022/05/06 10:49:40;;;;;;;9.33;6.53;;;23.00;1.00;;;;;;5104615;28;20436;-58
2022/05/06 10:52:22;;;;;;;7.73;6.97;;;23.00;1.00;;;;;;5092392;28;20440;-58
2022/05/06 10:55:03;;;;;;;8.30;6.83;;;22.10;1.00;;;;;;5098637;28;20498;-58
2022/05/06 10:57:30;;;;;;;7.37;6.57;;;21.20;1.00;;;;;;5093524;28;20539;-57
2022/05/06 11:00:09;;;;;;;12.13;7.30;;;20.80;1.00;;;;;;5106271;28;20754;-59
2022/05/06 11:02:36;;;;;;;6.90;6.30;;;20.90;1.00;;;;;;5099360;28;20458;-59
2022/05/06 11:05:07;;;;;;;7.27;6.60;;;20.90;1.00;;;;;;5103028;28;20492;-59
2022/05/06 11:07:35;;;;;;;9.57;6.63;;;21.00;1.00;;;;;;5109307;28;20447;-59
2022/05/06 11:10:10;;;;;;;6.70;6.10;;;21.20;1.00;;;;;;5094876;28;20451;-60
2022/05/06 11:12:57;;;;;;;7.10;6.40;;;21.50;1.00;;;;;;5107936;28;20610;-60
2022/05/06 11:15:33;;;;;;;6.50;5.90;;;21.80;1.00;;;;;;5101394;28;20471;-61
2022/05/06 11:18:01;;;;;;;6.53;5.93;;;22.50;1.00;;;;;;5095991;28;20504;-60
2022/05/06 11:20:38;;;;;;;8.53;6.60;;;22.80;1.00;;;;;;5101903;28;20446;-59
2022/05/06 11:23:13;;;;;;;9.13;6.40;;;22.40;1.00;;;;;;5105630;28;20432;-59
2022/05/06 11:25:44;;;;;;;12.37;6.60;;;22.30;1.00;;;;;;5109778;28;20525;-59
2022/05/06 11:28:17;;;;;;;10.97;8.00;;;22.10;1.00;;;;;;5099263;28;20475;-59
2022/05/06 11:30:45;;;;;;;7.47;6.80;;;22.20;1.00;;;;;;5089363;28;20439;-60
2022/05/06 11:33:20;;;;;;;6.83;6.20;;;22.10;1.00;;;;;;5090573;28;20445;-59
2022/05/06 11:35:47;;;;;;;6.90;6.20;;;21.70;1.00;;;;;;5076670;28;20423;-62
2022/05/06 11:38:14;;;;;;;6.83;5.90;;;21.90;1.00;;;;;;5089906;28;20979;-60
2022/05/06 11:40:40;;;;;;;10.80;6.53;;;22.20;1.00;;;;;;5089489;28;20449;-60
2022/05/06 11:43:07;;;;;;;8.20;7.50;;;22.30;1.00;;;;;;5090150;28;20990;-60
2022/05/06 11:48:22;;;;;;;6.87;6.17;;;22.30;1.00;;;;;;5111856;28;20409;-60
2022/05/06 11:50:56;;;;;;;8.30;6.77;;;22.50;1.00;;;;;;5113565;28;20524;-60
2022/05/06 11:53:27;;;;;;;10.43;6.00;;;22.70;1.00;;;;;;5111561;28;20435;-59
2022/05/06 11:55:54;;;;;;;6.97;6.33;;;23.40;1.00;;;;;;5096969;28;20444;-60
2022/05/06 11:58:20;;;;;;;9.53;6.20;;;23.80;1.00;;;;;;5092832;28;20469;-58
2022/05/06 12:00:46;;;;;;;6.73;6.13;;;23.70;1.00;;;;;;5092891;28;20487;-60
2022/05/06 12:03:13;;;;;;;7.53;6.00;;;23.50;1.00;;;;;;5092804;28;20504;-60
2022/05/06 12:05:40;;;;;;;6.30;5.70;;;23.50;1.00;;;;;;5101214;28;20627;-59
2022/05/06 12:08:07;;;;;;;7.23;5.30;;;23.90;1.00;;;;;;5097958;28;20440;-59
2022/05/06 12:10:38;;;;;;;7.43;6.17;;;24.30;1.00;;;;;;5101528;28;21002;-61
2022/05/06 12:13:07;;;;;;;6.50;6.00;;;23.80;1.00;;;;;;5108539;28;20443;-60
2022/05/06 12:15:40;;;;;;;6.30;5.70;;;22.80;1.00;;;;;;5112700;28;20944;-59
2022/05/06 12:18:17;;;;;;;13.10;9.30;;;21.50;1.00;;;;;;5112804;28;20458;-60
2022/05/06 12:20:43;;;;;;;8.27;6.60;;;21.00;1.00;;;;;;5111002;28;20492;-60
2022/05/06 12:23:10;;;;;;;7.70;6.90;;;21.00;1.00;;;;;;5112615;28;20436;-59
2022/05/06 12:25:39;;;;;;;10.00;8.83;;;21.00;1.00;;;;;;5112592;28;20178;-60
2022/05/06 12:28:15;;;;;;;9.87;7.00;;;21.20;1.00;;;;;;5092507;28;20904;-60
2022/05/06 12:30:42;;;;;;;7.13;6.00;;;21.60;1.00;;;;;;5091947;28;20432;-60
2022/05/06 12:33:15;;;;;;;7.33;5.67;;;22.10;1.00;;;;;;5102941;28;20805;-60
2022/05/06 12:36:02;;;;;;;8.60;5.50;;;22.60;1.00;;;;;;5112464;28;20456;-60
2022/05/06 12:38:36;;;;;;;9.80;5.23;;;23.10;1.00;;;;;;5112353;28;20458;-60
2022/05/06 12:41:22;;;;;;;5.53;5.00;;;23.40;1.00;;;;;;5112202;28;20510;-60
2022/05/06 12:43:49;;;;;;;5.27;4.80;;;23.50;1.00;;;;;;5111982;28;20480;-60
2022/05/06 12:46:36;;;;;;;10.00;5.43;;;23.50;1.00;;;;;;5112390;28;20439;-59
2022/05/06 12:51:46;;;;;;;8.37;5.60;;;23.80;1.00;;;;;;5112281;28;20920;-60
2022/05/06 12:54:13;;;;;;;5.63;5.13;;;23.50;1.00;;;;;;5101696;28;20523;-59
2022/05/06 12:56:40;;;;;;;6.17;5.57;;;23.20;1.00;;;;;;5094457;28;20513;-59
2022/05/06 12:59:06;;;;;;;6.03;4.77;;;22.80;1.00;;;;;;5093333;28;20586;-60
2022/05/06 13:01:33;;;;;;;6.27;4.50;;;22.90;1.00;;;;;;5093055;28;20448;-60
2022/05/06 13:03:58;;;;;;;6.93;4.60;;;23.20;1.00;;;;;;5091460;28;20439;-60
2022/05/06 13:06:24;;;;;;;10.73;5.27;;;23.70;1.00;;;;;;5095323;28;20451;-60
2022/05/06 13:08:50;;;;;;;5.70;4.63;;;24.20;1.00;;;;;;5105152;28;20269;-60
2022/05/06 13:11:16;;;;;;;7.20;5.80;;;24.10;1.00;;;;;;5091482;28;20440;-60
2022/05/06 13:13:42;;;;;;;7.50;5.40;;;23.40;1.00;;;;;;5093585;28;20636;-60
2022/05/06 13:16:13;;;;;;;6.40;5.60;;;23.00;1.00;;;;;;5091454;28;20182;-60
2022/05/06 13:18:40;;;;;;;7.20;5.43;;;22.60;1.00;;;;;;5091467;28;20187;-60
2022/05/06 13:21:11;;;;;;;5.17;4.43;;;22.30;1.00;;;;;;5091317;28;20432;-60
2022/05/06 13:23:42;;;;;;;7.30;5.13;;;22.30;1.00;;;;;;5107492;28;20460;-60
2022/05/06 13:26:14;;;;;;;8.63;4.70;;;22.20;1.00;;;;;;5101063;28;20463;-59
2022/05/06 13:28:39;;;;;;;6.10;5.13;;;21.90;1.00;;;;;;5111095;28;20921;-59
2022/05/06 13:31:14;;;;;;;5.50;5.00;;;21.80;1.00;;;;;;5111491;28;20412;-60
2022/05/06 13:33:40;;;;;;;6.90;5.27;;;21.90;1.00;;;;;;5096380;28;20170;-59
2022/05/06 13:36:12;;;;;;;4.77;4.37;;;22.00;1.00;;;;;;5090621;28;20771;-60
2022/05/06 13:38:38;;;;;;;7.90;5.10;;;21.90;1.00;;;;;;5110265;28;20659;-60
2022/05/06 13:41:30;;;;;;;7.63;4.73;;;22.10;1.00;;;;;;5111238;28;20489;-65
2022/05/06 13:43:55;;;;;;;5.07;4.57;;;22.30;1.00;;;;;;5072384;28;20214;-60
2022/05/06 13:46:21;;;;;;;6.10;5.03;;;22.40;1.00;;;;;;5091121;28;20481;-59
2022/05/06 13:48:48;;;;;;;5.47;4.40;;;22.50;1.00;;;;;;5091449;28;20191;-59
2022/05/06 13:51:13;;;;;;;5.07;4.57;;;22.50;1.00;;;;;;5090646;28;20178;-60
2022/05/06 13:53:39;;;;;;;4.57;4.17;;;22.50;1.00;;;;;;5090924;28;20415;-61